createdAt,value
2023-05-19T00:02:09.472Z,2.28
2023-05-19T00:04:40.590Z,1.08
2023-05-19T00:07:11.468Z,0.63
2023-05-19T00:09:38.483Z,0.40
2023-05-19T00:12:05.654Z,1.90
2023-05-19T00:14:32.693Z,0.88
2023-05-19T00:17:01.988Z,2.30
2023-05-19T00:19:32.354Z,2.30
2023-05-19T00:21:59.323Z,4.43
2023-05-19T00:24:26.094Z,4.70
2023-05-19T00:26:52.809Z,4.28
2023-05-19T00:29:19.564Z,1.70
2023-05-19T00:31:46.513Z,6.45
2023-05-19T00:34:13.516Z,2.95
2023-05-19T00:36:40.471Z,7.75
2023-05-19T00:39:07.370Z,2.00
2023-05-19T00:41:36.439Z,1.92
2023-05-19T00:44:03.609Z,4.70
2023-05-19T00:46:30.798Z,4.53
2023-05-19T00:48:57.747Z,2.70
2023-05-19T00:51:27.807Z,5.07
2023-05-19T00:53:55.030Z,2.60
2023-05-19T00:56:22.909Z,3.22
2023-05-19T00:58:51.978Z,4.85
2023-05-19T01:01:21.413Z,5.95
2023-05-19T01:03:49.074Z,2.80
2023-05-19T01:06:15.941Z,2.22
2023-05-19T01:08:42.775Z,3.33
2023-05-19T01:11:10.360Z,4.97
2023-05-19T01:13:38.655Z,2.75
2023-05-19T01:16:27.797Z,2.95
2023-05-19T01:18:57.553Z,3.10
2023-05-19T01:21:55.426Z,2.05
2023-05-19T01:24:32.381Z,3.10
2023-05-19T01:27:23.508Z,2.90
2023-05-19T01:30:35.658Z,4.75
2023-05-19T01:33:06.742Z,3.63
2023-05-19T01:35:38.568Z,2.03
2023-05-19T01:38:09.520Z,2.85
2023-05-19T01:40:38.622Z,1.75
2023-05-19T01:43:07.755Z,3.78
2023-05-19T01:45:34.785Z,2.38
2023-05-19T01:48:03.959Z,1.00
2023-05-19T01:50:31.989Z,1.88
2023-05-19T01:53:00.385Z,1.35
2023-05-19T01:55:27.980Z,1.58
2023-05-19T01:58:18.693Z,3.47
2023-05-19T02:01:08.308Z,1.23
2023-05-19T02:03:53.228Z,2.63
2023-05-19T02:07:01.320Z,2.13
2023-05-19T02:09:56.999Z,2.05
2023-05-19T02:12:32.952Z,1.65
2023-05-19T02:15:04.929Z,1.50
2023-05-19T02:17:36.655Z,1.55
2023-05-19T02:20:05.099Z,2.85
2023-05-19T02:22:32.023Z,1.67
2023-05-19T02:24:59.096Z,3.22
2023-05-19T02:27:26.380Z,4.28
2023-05-19T02:29:53.453Z,2.15
2023-05-19T02:32:21.230Z,1.58
2023-05-19T02:34:48.944Z,2.75
2023-05-19T02:37:16.235Z,1.92
2023-05-19T02:39:43.183Z,3.05
2023-05-19T02:42:10.241Z,1.95
2023-05-19T02:44:36.988Z,1.85
2023-05-19T02:47:03.852Z,3.92
2023-05-19T02:49:36.146Z,2.75
2023-05-19T02:52:07.014Z,2.28
2023-05-19T02:54:34.912Z,2.15
2023-05-19T02:57:02.614Z,2.15
2023-05-19T02:59:29.541Z,4.03
2023-05-19T03:01:59.263Z,3.38
2023-05-19T03:04:26.232Z,3.67
2023-05-19T03:06:54.352Z,4.22
2023-05-19T03:09:21.391Z,4.40
2023-05-19T03:11:48.220Z,2.90
2023-05-19T03:14:15.026Z,4.35
2023-05-19T03:16:42.344Z,4.90
2023-05-19T03:19:09.738Z,3.47
2023-05-19T03:21:36.736Z,3.40
2023-05-19T03:24:03.895Z,2.72
2023-05-19T03:26:31.229Z,3.70
2023-05-19T03:28:59.457Z,3.00
2023-05-19T03:31:26.882Z,2.60
2023-05-19T03:33:54.034Z,5.75
2023-05-19T03:36:22.701Z,3.85
2023-05-19T03:38:49.859Z,4.22
2023-05-19T03:41:16.709Z,10.15
2023-05-19T03:43:43.741Z,4.88
2023-05-19T03:46:10.655Z,4.75
2023-05-19T03:48:46.189Z,6.53
2023-05-19T03:51:24.487Z,2.95
2023-05-19T03:53:54.944Z,4.73
2023-05-19T03:56:25.092Z,7.55
2023-05-19T03:58:51.934Z,6.20
2023-05-19T04:01:18.790Z,5.70
2023-05-19T04:03:45.728Z,4.55
2023-05-19T04:06:14.624Z,4.97
2023-05-19T04:08:41.496Z,6.25
2023-05-19T04:11:08.495Z,5.10
2023-05-19T04:13:35.860Z,7.95
2023-05-19T04:16:02.998Z,10.43
2023-05-19T04:18:29.805Z,6.65
2023-05-19T04:20:56.615Z,10.68
2023-05-19T04:23:23.348Z,4.03
2023-05-19T04:25:50.400Z,8.65
2023-05-19T04:28:18.119Z,5.68
2023-05-19T04:30:46.697Z,6.22
2023-05-19T04:33:13.863Z,9.80
2023-05-19T04:35:44.186Z,10.18
2023-05-19T04:38:12.346Z,7.27
2023-05-19T04:40:42.290Z,13.30
2023-05-19T04:43:09.568Z,6.47
2023-05-19T04:45:37.780Z,7.75
2023-05-19T04:48:05.908Z,7.43
2023-05-19T04:50:33.552Z,11.70
2023-05-19T04:53:00.646Z,7.32
2023-05-19T04:55:27.888Z,9.75
2023-05-19T04:57:54.714Z,5.85
2023-05-19T05:00:22.551Z,7.70
2023-05-19T05:02:59.201Z,11.63
2023-05-19T05:05:28.852Z,7.07
2023-05-19T05:07:56.306Z,9.98
2023-05-19T05:10:25.617Z,7.57
2023-05-19T05:12:53.722Z,7.20
2023-05-19T05:15:21.443Z,8.02
2023-05-19T05:17:50.669Z,9.98
2023-05-19T05:20:19.720Z,10.23
2023-05-19T05:22:46.907Z,9.98
2023-05-19T05:25:14.868Z,9.68
2023-05-19T05:27:42.274Z,9.20
2023-05-19T05:30:09.643Z,10.90
2023-05-19T05:32:37.533Z,10.68
2023-05-19T05:35:15.216Z,11.60
2023-05-19T05:37:42.052Z,8.68
2023-05-19T05:40:12.339Z,12.63
2023-05-19T05:42:39.229Z,11.40
2023-05-19T05:45:06.677Z,6.95
2023-05-19T05:47:34.076Z,13.77
2023-05-19T05:50:01.365Z,8.55
2023-05-19T05:52:30.985Z,10.18
2023-05-19T05:54:59.707Z,10.30
2023-05-19T05:57:27.065Z,10.30
2023-05-19T05:59:54.254Z,11.77
2023-05-19T06:02:21.878Z,14.00
2023-05-19T06:04:48.994Z,8.13
2023-05-19T06:07:16.034Z,13.70
2023-05-19T06:09:44.777Z,8.77
2023-05-19T06:12:12.042Z,12.48
2023-05-19T06:14:44.696Z,11.52
2023-05-19T06:17:17.271Z,9.73
2023-05-19T06:19:44.053Z,11.23
2023-05-19T06:22:10.888Z,11.80
2023-05-19T06:24:39.612Z,11.77
2023-05-19T06:27:09.009Z,8.50
2023-05-19T06:29:35.856Z,11.90
2023-05-19T06:32:05.786Z,12.40
2023-05-19T06:34:32.824Z,12.05
2023-05-19T06:36:59.565Z,11.15
2023-05-19T06:39:26.977Z,12.65
2023-05-19T06:41:54.341Z,12.48
2023-05-19T06:44:41.388Z,11.50
2023-05-19T06:47:11.921Z,7.57
2023-05-19T06:49:39.156Z,19.25
2023-05-19T06:52:06.418Z,12.55
2023-05-19T06:54:33.560Z,11.90
2023-05-19T06:57:00.454Z,10.15
2023-05-19T06:59:27.763Z,17.60
2023-05-19T07:01:54.728Z,12.05
2023-05-19T07:04:21.712Z,16.13
2023-05-19T07:06:50.286Z,11.73
2023-05-19T07:09:17.611Z,23.48
2023-05-19T07:11:45.854Z,15.13
2023-05-19T07:14:12.706Z,12.60
2023-05-19T07:16:39.564Z,9.10
2023-05-19T07:19:06.463Z,13.23
2023-05-19T07:21:33.695Z,11.13
2023-05-19T07:24:00.512Z,14.45
2023-05-19T07:26:29.606Z,17.40
2023-05-19T07:28:57.871Z,14.70
2023-05-19T07:31:24.820Z,12.15
2023-05-19T07:33:54.327Z,11.70
2023-05-19T07:36:21.869Z,16.88
2023-05-19T07:38:48.824Z,12.57
2023-05-19T07:41:15.736Z,12.77
2023-05-19T07:43:43.264Z,19.67
2023-05-19T07:46:10.045Z,12.90
2023-05-19T07:48:38.098Z,7.95
2023-05-19T07:51:04.827Z,10.85
2023-05-19T07:53:31.690Z,9.80
2023-05-19T07:55:58.823Z,8.38
2023-05-19T07:58:26.859Z,13.13
2023-05-19T08:00:53.759Z,11.93
2023-05-19T08:03:21.188Z,13.40
2023-05-19T08:05:48.293Z,10.93
2023-05-19T08:08:17.122Z,11.73
2023-05-19T08:10:43.952Z,15.43
2023-05-19T08:13:10.824Z,10.30
2023-05-19T08:15:37.850Z,14.15
2023-05-19T08:18:05.424Z,12.50
2023-05-19T08:20:32.965Z,13.63
2023-05-19T08:23:00.228Z,10.75
2023-05-19T08:25:27.138Z,12.40
2023-05-19T08:27:53.874Z,10.48
2023-05-19T08:30:21.002Z,14.85
2023-05-19T08:32:48.752Z,11.90
2023-05-19T08:35:15.932Z,9.32
2023-05-19T08:37:42.886Z,12.93
2023-05-19T08:40:15.922Z,12.70
2023-05-19T08:42:42.710Z,12.10
2023-05-19T08:45:09.858Z,10.90
2023-05-19T08:47:37.159Z,11.82
2023-05-19T08:50:10.907Z,9.07
2023-05-19T08:52:52.487Z,10.30
2023-05-19T08:56:04.667Z,9.55
2023-05-19T08:58:33.456Z,10.43
2023-05-19T09:01:01.279Z,9.15
2023-05-19T09:03:29.229Z,8.73
2023-05-19T09:05:56.378Z,12.00
2023-05-19T09:08:25.962Z,10.35
2023-05-19T09:10:52.735Z,10.27
2023-05-19T09:13:19.550Z,9.70
2023-05-19T09:15:47.124Z,7.55
2023-05-19T09:18:17.809Z,8.40
2023-05-19T09:20:46.179Z,9.65
2023-05-19T09:23:17.787Z,6.47
2023-05-19T09:25:52.343Z,9.27
2023-05-19T09:28:31.632Z,11.93
2023-05-19T09:31:09.601Z,9.55
2023-05-19T09:33:38.584Z,10.10
2023-05-19T09:36:07.203Z,7.13
2023-05-19T09:38:35.305Z,10.82
2023-05-19T09:41:02.437Z,8.48
2023-05-19T09:43:33.524Z,11.70
2023-05-19T09:46:04.226Z,13.05
2023-05-19T09:48:31.146Z,8.82
2023-05-19T09:50:58.275Z,10.93
2023-05-19T09:53:25.631Z,10.48
2023-05-19T09:55:59.136Z,13.95
2023-05-19T09:58:27.072Z,10.32
2023-05-19T10:00:55.121Z,9.88
2023-05-19T10:03:24.274Z,14.13
2023-05-19T10:05:53.312Z,13.00
2023-05-19T10:08:20.410Z,14.50
2023-05-19T10:10:47.926Z,10.40
2023-05-19T10:13:16.592Z,8.68
2023-05-19T10:15:57.481Z,11.18
2023-05-19T10:18:27.124Z,15.55
2023-05-19T10:20:54.827Z,10.43
2023-05-19T10:23:24.064Z,7.72
2023-05-19T10:25:54.891Z,10.20
2023-05-19T10:28:26.663Z,10.85
2023-05-19T10:30:57.069Z,15.50
2023-05-19T10:33:38.848Z,14.30
2023-05-19T10:36:11.618Z,9.10
2023-05-19T10:39:00.709Z,17.15
2023-05-19T10:41:51.901Z,15.82
2023-05-19T10:44:30.970Z,9.85
2023-05-19T10:46:57.782Z,13.10
2023-05-19T10:49:24.836Z,11.48
2023-05-19T10:51:57.817Z,11.30
2023-05-19T10:54:46.309Z,9.98
2023-05-19T10:57:20.218Z,12.68
2023-05-19T10:59:47.389Z,11.43
2023-05-19T11:02:47.500Z,13.50
2023-05-19T11:05:20.940Z,13.40
2023-05-19T11:08:06.156Z,11.48
2023-05-19T11:10:32.982Z,9.07
2023-05-19T11:12:59.927Z,15.82
2023-05-19T11:15:28.192Z,13.25
2023-05-19T11:17:55.363Z,11.43
2023-05-19T11:20:24.701Z,10.18
2023-05-19T11:23:08.783Z,12.25
2023-05-19T11:25:53.957Z,9.63
2023-05-19T11:28:26.683Z,12.50
2023-05-19T11:30:59.087Z,12.27
2023-05-19T11:33:30.116Z,15.60
2023-05-19T11:35:58.407Z,13.30
2023-05-19T11:38:26.383Z,15.45
2023-05-19T11:40:54.199Z,12.18
2023-05-19T11:43:25.230Z,15.18
2023-05-19T11:45:53.410Z,13.07
2023-05-19T11:48:24.830Z,12.65
2023-05-19T11:50:52.502Z,13.10
2023-05-19T11:53:22.449Z,16.88
2023-05-19T11:55:49.835Z,12.45
2023-05-19T11:58:17.549Z,14.68
2023-05-19T12:00:47.675Z,13.70
2023-05-19T12:03:15.284Z,10.80
2023-05-19T12:05:48.634Z,12.95
2023-05-19T12:08:19.067Z,10.27
2023-05-19T12:10:49.864Z,11.75
2023-05-19T12:13:17.070Z,12.50
2023-05-19T12:15:43.898Z,13.90
2023-05-19T12:18:10.757Z,17.20
2023-05-19T12:20:37.857Z,14.57
2023-05-19T12:23:05.324Z,13.93
2023-05-19T12:25:32.827Z,13.05
2023-05-19T12:28:03.689Z,14.57
2023-05-19T12:30:32.279Z,14.50
2023-05-19T12:32:59.577Z,13.80
2023-05-19T12:35:28.075Z,11.85
2023-05-19T12:37:55.186Z,13.57
2023-05-19T12:40:22.397Z,13.20
2023-05-19T12:42:52.092Z,14.10
2023-05-19T12:45:22.348Z,16.70
2023-05-19T12:47:49.898Z,13.15
2023-05-19T12:50:16.625Z,12.95
2023-05-19T12:52:46.190Z,11.35
2023-05-19T12:55:14.448Z,14.77
2023-05-19T12:57:44.248Z,12.75
2023-05-19T13:00:17.603Z,15.77
2023-05-19T13:03:08.557Z,14.73
2023-05-19T13:05:46.526Z,9.85
2023-05-19T13:08:15.364Z,22.15
2023-05-19T13:10:43.974Z,10.82
2023-05-19T13:13:11.266Z,12.00
2023-05-19T13:15:41.980Z,9.52
2023-05-19T13:18:10.177Z,11.13
2023-05-19T13:20:38.389Z,19.60
2023-05-19T13:23:06.095Z,15.50
2023-05-19T13:25:34.361Z,16.92
2023-05-19T13:28:04.939Z,17.60
2023-05-19T13:30:33.338Z,16.58
2023-05-19T13:33:00.377Z,15.43
2023-05-19T13:35:27.207Z,22.25
2023-05-19T13:37:54.329Z,15.93
2023-05-19T13:40:21.414Z,15.70
2023-05-19T13:42:48.241Z,10.18
2023-05-19T13:45:15.037Z,13.88
2023-05-19T13:47:41.955Z,16.63
2023-05-19T13:50:09.205Z,12.68
2023-05-19T13:52:38.040Z,14.10
2023-05-19T13:55:06.691Z,14.52
2023-05-19T13:57:33.447Z,21.65
2023-05-19T14:00:03.239Z,16.65
2023-05-19T14:02:40.584Z,16.48
2023-05-19T14:05:08.248Z,9.90
2023-05-19T14:07:35.696Z,14.05
2023-05-19T14:10:05.636Z,12.02
2023-05-19T14:12:41.504Z,11.55
2023-05-19T14:17:41.613Z,14.77
2023-05-19T14:20:09.675Z,13.90
2023-05-19T14:22:36.534Z,12.57
2023-05-19T14:25:03.795Z,13.80
2023-05-19T14:27:30.680Z,15.52
2023-05-19T14:29:57.604Z,12.48
2023-05-19T14:32:24.519Z,12.10
2023-05-19T14:34:54.226Z,11.35
2023-05-19T14:37:21.100Z,11.60
2023-05-19T14:39:48.023Z,14.75
2023-05-19T14:42:14.983Z,13.10
2023-05-19T14:44:41.749Z,14.90
2023-05-19T14:47:08.696Z,13.38
2023-05-19T14:49:35.662Z,10.48
2023-05-19T14:52:02.733Z,13.57
2023-05-19T14:54:29.534Z,13.23
2023-05-19T14:56:56.331Z,14.43
2023-05-19T14:59:23.134Z,11.05
2023-05-19T15:01:49.869Z,8.00
2023-05-19T15:04:16.824Z,16.05
2023-05-19T15:06:44.352Z,8.90
2023-05-19T15:09:14.634Z,9.77
2023-05-19T15:11:41.577Z,9.57
2023-05-19T15:14:08.468Z,11.48
2023-05-19T15:16:35.218Z,12.57
2023-05-19T15:19:02.008Z,12.18
2023-05-19T15:21:28.799Z,15.30
2023-05-19T15:23:55.584Z,10.20
2023-05-19T15:26:22.547Z,12.18
2023-05-19T15:28:49.319Z,12.57
2023-05-19T15:31:16.259Z,11.50
2023-05-19T15:33:43.093Z,9.70
2023-05-19T15:36:12.855Z,12.65
2023-05-19T15:38:39.662Z,11.15
2023-05-19T15:41:08.207Z,11.85
2023-05-19T15:43:36.048Z,11.38
2023-05-19T15:46:05.095Z,11.32
2023-05-19T15:48:32.421Z,10.90
2023-05-19T15:51:00.610Z,10.15
2023-05-19T15:53:27.411Z,9.82
2023-05-19T15:55:54.331Z,13.07
2023-05-19T15:58:21.171Z,12.23
2023-05-19T16:00:47.996Z,13.98
2023-05-19T16:03:14.935Z,11.85
2023-05-19T16:05:41.697Z,18.60
2023-05-19T16:08:08.893Z,17.70
2023-05-19T16:10:36.291Z,12.57
2023-05-19T16:13:03.094Z,15.30
2023-05-19T16:15:29.901Z,13.88
2023-05-19T16:17:57.330Z,9.02
2023-05-19T16:20:27.880Z,10.48
2023-05-19T16:22:55.495Z,8.95
2023-05-19T16:25:22.614Z,13.10
2023-05-19T16:27:49.709Z,15.60
2023-05-19T16:30:16.827Z,12.27
2023-05-19T16:32:43.645Z,12.45
2023-05-19T16:35:10.647Z,10.80
2023-05-19T16:37:37.654Z,11.35
2023-05-19T16:40:05.001Z,12.00
2023-05-19T16:42:32.396Z,12.50
2023-05-19T16:44:59.092Z,16.58
2023-05-19T16:47:25.861Z,20.38
2023-05-19T16:49:52.757Z,10.65
2023-05-19T16:52:20.159Z,13.40
2023-05-19T16:54:46.999Z,11.07
2023-05-19T16:57:16.623Z,8.02
2023-05-19T16:59:43.379Z,13.02
2023-05-19T17:02:10.355Z,11.75
2023-05-19T17:04:37.497Z,10.68
2023-05-19T17:07:04.542Z,12.73
2023-05-19T17:09:31.381Z,11.48
2023-05-19T17:11:58.261Z,11.10
2023-05-19T17:14:25.024Z,25.70
2023-05-19T17:16:52.776Z,15.02
2023-05-19T17:19:19.615Z,10.60
2023-05-19T17:21:46.455Z,9.30
2023-05-19T17:24:13.186Z,14.13
2023-05-19T17:26:40.104Z,11.98
2023-05-19T17:29:06.887Z,12.60
2023-05-19T17:31:34.653Z,12.63
2023-05-19T17:34:01.368Z,11.57
2023-05-19T17:36:31.262Z,11.10
2023-05-19T17:38:58.144Z,10.45
2023-05-19T17:41:24.879Z,13.68
2023-05-19T17:43:51.688Z,13.55
2023-05-19T17:46:18.426Z,11.10
2023-05-19T17:48:45.189Z,17.42
2023-05-19T17:51:12.056Z,16.88
2023-05-19T17:53:39.105Z,11.38
2023-05-19T17:56:08.899Z,9.73
2023-05-19T17:58:36.499Z,11.38
2023-05-19T18:01:03.402Z,11.95
2023-05-19T18:03:30.895Z,13.25
2023-05-19T18:05:59.037Z,19.85
2023-05-19T18:08:26.824Z,14.45
2023-05-19T18:10:55.547Z,11.48
2023-05-19T18:13:23.689Z,12.48
2023-05-19T18:15:50.668Z,15.07
2023-05-19T18:18:17.511Z,16.83
2023-05-19T18:20:45.720Z,17.08
2023-05-19T18:23:12.537Z,18.23
2023-05-19T18:25:39.370Z,14.70
2023-05-19T18:28:06.456Z,14.27
2023-05-19T18:30:33.534Z,19.55
2023-05-19T18:33:03.559Z,11.15
2023-05-19T18:35:30.582Z,17.17
2023-05-19T18:37:57.444Z,16.05
2023-05-19T18:40:24.639Z,16.92
2023-05-19T18:42:51.378Z,15.00
2023-05-19T18:45:18.604Z,15.98
2023-05-19T18:47:45.819Z,8.82
2023-05-19T18:50:13.176Z,10.38
2023-05-19T18:52:40.475Z,17.00
2023-05-19T18:55:07.818Z,12.35
2023-05-19T18:57:34.601Z,13.52
2023-05-19T19:00:01.563Z,15.60
2023-05-19T19:02:28.459Z,12.15
2023-05-19T19:04:55.361Z,16.42
2023-05-19T19:07:25.538Z,18.77
2023-05-19T19:09:52.374Z,15.32
2023-05-19T19:12:20.298Z,15.18
2023-05-19T19:14:47.416Z,15.68
2023-05-19T19:17:14.239Z,14.18
2023-05-19T19:19:41.319Z,15.60
2023-05-19T19:22:08.216Z,15.50
2023-05-19T19:24:35.942Z,14.10
2023-05-19T19:27:02.756Z,11.48
2023-05-19T19:29:29.909Z,21.17
2023-05-19T19:31:57.032Z,17.10
2023-05-19T19:34:23.892Z,18.35
2023-05-19T19:36:50.810Z,13.35
2023-05-19T19:39:17.608Z,18.17
2023-05-19T19:41:44.385Z,12.13
2023-05-19T19:44:11.133Z,37.25
2023-05-19T19:46:38.014Z,14.52
2023-05-19T19:49:05.045Z,15.20
2023-05-19T19:51:32.074Z,13.85
2023-05-19T19:53:59.147Z,15.85
2023-05-19T19:56:27.637Z,14.18
2023-05-19T19:58:59.045Z,16.20
2023-05-19T20:01:27.899Z,15.87
2023-05-19T20:03:56.047Z,13.70
2023-05-19T20:06:23.143Z,16.30
2023-05-19T20:08:49.923Z,13.88
2023-05-19T20:11:16.956Z,14.60
2023-05-19T20:13:43.637Z,15.63
2023-05-19T20:16:10.567Z,18.17
2023-05-19T20:18:37.497Z,13.00
2023-05-19T20:21:04.343Z,12.50
2023-05-19T20:23:31.107Z,21.45
2023-05-19T20:26:10.986Z,16.45
2023-05-19T20:28:39.594Z,12.40
2023-05-19T20:31:06.504Z,11.70
2023-05-19T20:33:33.284Z,15.98
2023-05-19T20:35:59.997Z,14.52
2023-05-19T20:38:26.759Z,17.20
2023-05-19T20:40:54.402Z,13.23
2023-05-19T20:43:21.383Z,17.23
2023-05-19T20:45:48.456Z,15.18
2023-05-19T20:48:17.748Z,11.07
2023-05-19T20:50:44.489Z,12.90
2023-05-19T20:53:11.380Z,17.98
2023-05-19T20:55:39.156Z,14.98
2023-05-19T20:58:06.266Z,10.70
2023-05-19T21:00:33.526Z,14.50
2023-05-19T21:03:00.860Z,13.88
2023-05-19T21:05:27.728Z,11.68
2023-05-19T21:07:54.768Z,15.65
2023-05-19T21:10:21.663Z,18.00
2023-05-19T21:12:48.945Z,18.38
2023-05-19T21:15:15.772Z,21.70
2023-05-19T21:17:42.629Z,46.88
2023-05-19T21:20:10.039Z,13.52
2023-05-19T21:22:36.917Z,17.23
2023-05-19T21:25:04.118Z,13.70
2023-05-19T21:27:32.970Z,31.55
2023-05-19T21:30:00.300Z,22.80
2023-05-19T21:32:29.925Z,15.35
2023-05-19T21:34:56.822Z,18.42
2023-05-19T21:37:26.743Z,15.70
2023-05-19T21:39:53.574Z,19.20
2023-05-19T21:42:20.554Z,16.50
2023-05-19T21:44:47.324Z,13.45
2023-05-19T21:47:14.028Z,13.73
2023-05-19T21:49:40.822Z,16.25
2023-05-19T21:52:07.921Z,14.80
2023-05-19T21:54:35.283Z,15.70
2023-05-19T21:57:04.605Z,13.80
2023-05-19T21:59:31.457Z,10.18
2023-05-19T22:01:58.610Z,12.40
2023-05-19T22:04:25.659Z,10.63
2023-05-19T22:06:52.505Z,18.60
2023-05-19T22:09:19.334Z,18.83
2023-05-19T22:11:48.507Z,11.00
2023-05-19T22:14:17.886Z,9.48
2023-05-19T22:16:44.806Z,11.52
2023-05-19T22:19:11.793Z,13.20
2023-05-19T22:21:38.641Z,13.25
2023-05-19T22:24:05.518Z,12.50
2023-05-19T22:26:32.365Z,11.00
2023-05-19T22:29:02.540Z,14.88
2023-05-19T22:31:29.695Z,18.42
2023-05-19T22:33:56.531Z,14.63
2023-05-19T22:36:23.807Z,12.85
2023-05-19T22:38:50.657Z,14.38
2023-05-19T22:41:17.388Z,13.15
2023-05-19T22:43:44.461Z,19.27
2023-05-19T22:46:11.367Z,10.85
2023-05-19T22:48:41.270Z,11.40
2023-05-19T22:51:08.142Z,12.23
2023-05-19T22:53:34.846Z,11.10
2023-05-19T22:56:01.596Z,16.38
2023-05-19T22:58:28.409Z,17.30
2023-05-19T23:00:55.183Z,11.57
2023-05-19T23:03:27.905Z,12.00
2023-05-19T23:05:54.717Z,12.07
2023-05-19T23:08:22.123Z,10.80
2023-05-19T23:10:48.948Z,9.27
2023-05-19T23:13:15.757Z,10.75
2023-05-19T23:15:44.350Z,9.80
2023-05-19T23:18:11.616Z,13.07
2023-05-19T23:20:38.426Z,10.38
2023-05-19T23:23:05.202Z,10.30
2023-05-19T23:25:32.411Z,13.68
2023-05-19T23:27:59.302Z,9.50
2023-05-19T23:30:30.462Z,16.90
2023-05-19T23:32:57.392Z,15.80
2023-05-19T23:35:24.374Z,12.13
2023-05-19T23:37:51.166Z,19.63
2023-05-19T23:40:18.081Z,22.88
2023-05-19T23:42:45.059Z,8.60
2023-05-19T23:45:11.964Z,12.25
2023-05-19T23:47:38.897Z,12.98
2023-05-19T23:50:06.722Z,11.63
2023-05-19T23:52:33.455Z,13.15
2023-05-19T23:55:00.535Z,9.90
2023-05-19T23:57:27.417Z,12.25
2023-05-19T23:59:54.393Z,13.75
